Time,TemperatureF,DewpointF,PressureIn,WindDirection,WindDirectionDegrees,WindSpeedMPH,WindSpeedGustMPH,Humidity,HourlyPrecipIn,Conditions,Clouds,dailyrainin,SolarRadiationWatts/m^2,SoftwareType,DateUTC
2013-10-04 00:00:00,41.0,38.9,30.04,NNE,32,12.0,25.0,92,0.16,,OVC041,0.66,0.00,VWS V14.01,2013-10-04 06:00:00,
2013-10-04 00:01:00,40.3,38.2,30.07,NE,34,14.0,22.0,92,0.29,,CLR,0.88,0.00,VWS V14.01,2013-10-04 06:01:00,
2013-10-04 00:06:00,40.5,38.4,30.08,North,350,9.0,11.0,92,0.25,,CLR,0.02,0.00,VWS V14.01,2013-10-04 06:06:00,
2013-10-04 00:11:00,40.4,38.3,30.09,NNE,28,14.0,17.0,92,0.28,,CLR,0.05,0.00,VWS V14.01,2013-10-04 06:11:00,
2013-10-04 00:16:00,40.3,38.2,30.08,NNE,15,13.0,18.0,92,0.30,,CLR,0.07,0.00,VWS V14.01,2013-10-04 06:16:00,
2013-10-04 00:21:00,40.3,38.2,30.08,North,11,14.0,20.0,92,0.32,,CLR,0.09,0.00,VWS V14.01,2013-10-04 06:21:00,
2013-10-04 00:26:00,40.3,38.2,30.07,NNE,12,19.0,20.0,92,0.35,,CLR,0.12,0.00,VWS V14.01,2013-10-04 06:26:00,
2013-10-04 00:30:00,40.9,38.8,30.06,North,10,13.0,19.0,92,0.21,,OVC041,0.77,0.00,VWS V14.01,2013-10-04 06:30:00,
2013-10-04 00:31:00,39.9,37.8,30.08,NNE,19,11.0,23.0,92,0.37,,CLR,0.14,0.00,VWS V14.01,2013-10-04 06:31:00,
2013-10-04 00:36:00,39.8,37.7,30.07,North,11,15.0,25.0,92,0.28,,CLR,0.16,0.00,VWS V14.01,2013-10-04 06:36:00,
2013-10-04 00:41:00,39.3,37.2,30.07,NNE,22,15.0,27.0,92,0.29,,CLR,0.17,0.00,VWS V14.01,2013-10-04 06:41:00,
2013-10-04 00:46:00,39.5,37.4,30.07,NNE,21,19.0,27.0,92,0.31,,CLR,0.19,0.00,VWS V14.01,2013-10-04 06:46:00,
2013-10-04 00:51:00,39.2,37.1,30.07,NNW,334,21.0,27.0,92,0.32,,CLR,0.20,0.00,VWS V14.01,2013-10-04 06:51:00,
2013-10-04 00:56:00,39.2,37.1,30.08,NE,42,11.0,27.0,92,0.34,,CLR,0.22,0.00,VWS V14.01,2013-10-04 06:56:00,
2013-10-04 01:00:00,40.4,38.3,30.07,NE,38,11.0,22.0,92,0.30,,OVC041,0.89,0.00,VWS V14.01,2013-10-04 07:00:00,
2013-10-04 01:01:00,39.1,37.0,30.08,NE,36,22.0,27.0,92,0.36,,CLR,0.24,0.00,VWS V14.01,2013-10-04 07:01:00,
2013-10-04 01:06:00,38.8,36.7,30.07,North,355,21.0,22.0,92,0.26,,CLR,0.26,0.00,VWS V14.01,2013-10-04 07:06:00,
2013-10-04 01:11:00,38.7,36.6,30.07,NNE,24,13.0,23.0,92,0.27,,CLR,0.27,0.00,VWS V14.01,2013-10-04 07:11:00,
2013-10-04 01:16:00,38.4,36.3,30.07,NNE,26,13.0,27.0,92,0.28,,CLR,0.28,0.00,VWS V14.01,2013-10-04 07:16:00,
2013-10-04 01:21:00,38.4,36.3,30.07,North,360,19.0,29.0,92,0.29,,CLR,0.29,0.00,VWS V14.01,2013-10-04 07:21:00,
2013-10-04 01:26:00,38.6,36.8,30.07,NNW,341,9.0,29.0,93,0.29,,CLR,0.29,0.00,VWS V14.01,2013-10-04 07:26:00,
2013-10-04 01:30:00,39.9,37.8,30.08,North,355,13.0,23.0,92,0.37,,OVC041,0.14,0.00,VWS V14.01,2013-10-04 07:30:00,
2013-10-04 01:31:00,38.4,36.6,30.07,NE,34,12.0,29.0,93,0.31,,CLR,0.31,0.00,VWS V14.01,2013-10-04 07:31:00,
2013-10-04 01:36:00,38.1,36.3,30.06,North,5,15.0,23.0,93,0.18,,CLR,0.32,0.00,VWS V14.01,2013-10-04 07:36:00,
2013-10-04 01:41:00,37.9,36.1,30.06,NNW,338,16.0,27.0,93,0.19,,CLR,0.33,0.00,VWS V14.01,2013-10-04 07:41:00,
2013-10-04 01:46:00,37.8,36.0,30.06,North,5,18.0,27.0,93,0.20,,CLR,0.34,0.00,VWS V14.01,2013-10-04 07:46:00,
2013-10-04 01:51:00,37.9,36.1,30.07,North,9,14.0,27.0,93,0.21,,CLR,0.35,0.00,VWS V14.01,2013-10-04 07:51:00,
2013-10-04 01:56:00,37.9,36.1,30.07,North,355,12.0,27.0,93,0.22,,CLR,0.36,0.00,VWS V14.01,2013-10-04 07:56:00,
2013-10-04 02:00:00,39.0,36.9,30.07,NNE,25,15.0,27.0,92,0.36,,OVC041,0.24,0.00,VWS V14.01,2013-10-04 08:00:00,
2013-10-04 02:01:00,37.8,36.0,30.06,North,360,18.0,27.0,93,0.23,,CLR,0.37,0.00,VWS V14.01,2013-10-04 08:01:00,
2013-10-04 02:06:00,37.5,35.7,30.07,North,5,9.0,23.0,93,0.14,,CLR,0.38,0.00,VWS V14.01,2013-10-04 08:06:00,
2013-10-04 02:11:00,37.5,35.7,30.07,North,355,14.0,23.0,93,0.15,,CLR,0.39,0.00,VWS V14.01,2013-10-04 08:11:00,
2013-10-04 02:16:00,37.6,35.8,30.06,North,5,12.0,25.0,93,0.16,,CLR,0.40,0.00,VWS V14.01,2013-10-04 08:16:00,
2013-10-04 02:21:00,37.8,36.0,30.06,NNE,27,19.0,25.0,93,0.17,,CLR,0.41,0.00,VWS V14.01,2013-10-04 08:21:00,
2013-10-04 02:26:00,37.9,36.1,30.06,NNE,15,14.0,25.0,93,0.17,,CLR,0.41,0.00,VWS V14.01,2013-10-04 08:26:00,
2013-10-04 02:30:00,38.4,36.6,30.07,North,5,22.0,29.0,93,0.31,,OVC041,0.31,0.00,VWS V14.01,2013-10-04 08:30:00,
2013-10-04 02:31:00,37.9,36.1,30.05,NNE,26,13.0,26.0,93,0.18,,CLR,0.42,0.00,VWS V14.01,2013-10-04 08:31:00,
2013-10-04 02:36:00,38.0,36.2,30.05,NNE,20,13.0,24.0,93,0.12,,CLR,0.43,0.00,VWS V14.01,2013-10-04 08:36:00,
2013-10-04 02:41:00,38.0,36.2,30.05,North,11,14.0,26.0,93,0.12,,CLR,0.43,0.00,VWS V14.01,2013-10-04 08:41:00,
2013-10-04 02:46:00,37.9,36.1,30.06,North,360,13.0,26.0,93,0.13,,CLR,0.44,0.00,VWS V14.01,2013-10-04 08:46:00,
2013-10-04 02:51:00,37.9,36.1,30.06,North,349,13.0,26.0,93,0.14,,CLR,0.45,0.00,VWS V14.01,2013-10-04 08:51:00,
2013-10-04 02:56:00,37.9,36.1,30.05,NNE,17,17.0,26.0,93,0.15,,CLR,0.46,0.00,VWS V14.01,2013-10-04 08:56:00,
2013-10-04 03:00:00,37.7,35.9,30.06,North,360,16.0,27.0,93,0.23,,OVC041,0.37,0.00,VWS V14.01,2013-10-04 09:00:00,
2013-10-04 03:01:00,37.7,35.9,30.05,NW,319,11.0,26.0,93,0.16,,CLR,0.47,0.00,VWS V14.01,2013-10-04 09:01:00,
2013-10-04 03:06:00,37.7,35.9,30.05,NNE,21,20.0,22.0,93,0.10,,CLR,0.47,0.00,VWS V14.01,2013-10-04 09:06:00,
2013-10-04 03:11:00,37.6,35.8,30.05,North,360,14.0,22.0,93,0.11,,CLR,0.48,0.00,VWS V14.01,2013-10-04 09:11:00,
2013-10-04 03:16:00,37.5,35.7,30.05,NNW,333,10.0,24.0,93,0.12,,CLR,0.49,0.00,VWS V14.01,2013-10-04 09:16:00,
2013-10-04 03:21:00,37.2,35.4,30.05,North,360,14.0,25.0,93,0.13,,CLR,0.50,0.00,VWS V14.01,2013-10-04 09:21:00,
2013-10-04 03:26:00,37.2,35.4,30.05,NNW,338,10.0,26.0,93,0.14,,CLR,0.51,0.00,VWS V14.01,2013-10-04 09:26:00,
2013-10-04 03:30:00,37.9,36.1,30.06,NNW,347,19.0,26.0,93,0.18,,OVC041,0.42,0.00,VWS V14.01,2013-10-04 09:30:00,
2013-10-04 03:31:00,37.2,35.4,30.05,North,360,17.0,26.0,93,0.15,,CLR,0.52,0.00,VWS V14.01,2013-10-04 09:31:00,
2013-10-04 03:36:00,37.1,35.3,30.05,NNE,14,15.0,21.0,93,0.11,,CLR,0.53,0.00,VWS V14.01,2013-10-04 09:36:00,
2013-10-04 03:41:00,37.1,35.5,30.05,North,360,13.0,25.0,94,0.12,,CLR,0.54,0.00,VWS V14.01,2013-10-04 09:41:00,
2013-10-04 03:46:00,37.1,35.5,30.04,North,360,12.0,25.0,94,0.13,,CLR,0.55,0.00,VWS V14.01,2013-10-04 09:46:00,
2013-10-04 03:51:00,37.0,35.4,30.03,North,360,11.0,25.0,94,0.14,,CLR,0.56,0.00,VWS V14.01,2013-10-04 09:51:00,
2013-10-04 03:56:00,37.0,35.4,30.04,North,360,16.0,25.0,94,0.15,,CLR,0.57,0.00,VWS V14.01,2013-10-04 09:56:00,
2013-10-04 04:00:00,37.6,35.8,30.05,NNW,329,10.0,26.0,93,0.16,,OVC041,0.47,0.00,VWS V14.01,2013-10-04 10:00:00,
2013-10-04 04:01:00,37.1,35.5,30.05,North,350,9.0,25.0,94,0.15,,CLR,0.57,0.00,VWS V14.01,2013-10-04 10:01:00,
2013-10-04 04:06:00,37.2,35.6,30.04,North,355,11.0,21.0,94,0.11,,CLR,0.58,0.00,VWS V14.01,2013-10-04 10:06:00,
2013-10-04 04:11:00,37.3,35.7,30.03,NNW,341,17.0,26.0,94,0.12,,CLR,0.59,0.00,VWS V14.01,2013-10-04 10:11:00,
2013-10-04 04:16:00,37.3,35.7,30.03,North,351,12.0,26.0,94,0.12,,CLR,0.59,0.00,VWS V14.01,2013-10-04 10:16:00,
2013-10-04 04:21:00,37.3,35.7,30.03,NNW,346,11.0,26.0,94,0.12,,CLR,0.59,0.00,VWS V14.01,2013-10-04 10:21:00,
2013-10-04 04:26:00,37.3,35.7,30.02,NNE,26,19.0,29.0,94,0.13,,CLR,0.60,0.00,VWS V14.01,2013-10-04 10:26:00,
2013-10-04 04:30:00,37.1,35.3,30.05,North,11,15.0,26.0,93,0.15,,OVC041,0.52,0.00,VWS V14.01,2013-10-04 10:30:00,
2013-10-04 04:31:00,37.4,35.8,30.03,NNE,14,19.0,29.0,94,0.13,,CLR,0.60,0.00,VWS V14.01,2013-10-04 10:31:00,
2013-10-04 04:36:00,37.4,35.8,30.05,North,355,13.0,24.0,94,0.09,,CLR,0.61,0.00,VWS V14.01,2013-10-04 10:36:00,
2013-10-04 04:41:00,37.3,35.7,30.04,North,355,15.0,24.0,94,0.09,,CLR,0.61,0.00,VWS V14.01,2013-10-04 10:41:00,
2013-10-04 04:46:00,37.3,35.7,30.04,NNE,29,15.0,31.0,94,0.10,,CLR,0.62,0.00,VWS V14.01,2013-10-04 10:46:00,
2013-10-04 04:51:00,37.2,35.6,30.04,WNW,300,9.0,31.0,94,0.11,,CLR,0.63,0.00,VWS V14.01,2013-10-04 10:51:00,
2013-10-04 04:56:00,37.0,35.4,30.03,NNW,344,12.0,31.0,94,0.11,,CLR,0.63,0.00,VWS V14.01,2013-10-04 10:56:00,
2013-10-04 05:00:00,37.1,35.5,30.05,North,350,11.0,25.0,94,0.15,,OVC041,0.57,0.00,VWS V14.01,2013-10-04 11:00:00,
2013-10-04 05:01:00,36.7,35.1,30.04,NNW,333,14.0,31.0,94,0.13,,CLR,0.65,0.00,VWS V14.01,2013-10-04 11:01:00,
2013-10-04 05:06:00,36.7,35.1,30.06,NNW,348,12.0,22.0,94,0.08,,CLR,0.65,0.00,VWS V14.01,2013-10-04 11:06:00,
2013-10-04 05:11:00,36.6,35.0,30.05,NNW,342,25.0,25.0,94,0.10,,CLR,0.67,0.00,VWS V14.01,2013-10-04 11:11:00,
2013-10-04 05:16:00,36.6,35.0,30.07,NNW,348,14.0,25.0,94,0.11,,CLR,0.68,0.00,VWS V14.01,2013-10-04 11:16:00,
2013-10-04 05:21:00,36.5,34.9,30.07,NNW,346,17.0,25.0,94,0.13,,CLR,0.70,0.00,VWS V14.01,2013-10-04 11:21:00,
2013-10-04 05:26:00,36.2,34.6,30.06,NNW,329,17.0,27.0,94,0.16,,CLR,0.73,0.00,VWS V14.01,2013-10-04 11:26:00,
2013-10-04 05:30:00,37.4,35.8,30.04,North,360,15.0,29.0,94,0.13,,OVC041,0.60,0.00,VWS V14.01,2013-10-04 11:30:00,
2013-10-04 05:31:00,36.1,34.8,30.05,NNW,345,24.0,27.0,95,0.17,,CLR,0.74,0.00,VWS V14.01,2013-10-04 11:31:00,
2013-10-04 05:36:00,36.0,34.7,30.06,NNW,334,10.0,23.0,95,0.15,,CLR,0.75,0.00,VWS V14.01,2013-10-04 11:36:00,
2013-10-04 05:41:00,35.9,34.3,30.07,NNW,345,14.0,23.0,94,0.17,,CLR,0.77,0.00,VWS V14.01,2013-10-04 11:41:00,
2013-10-04 05:46:00,35.5,34.2,30.05,NW,324,15.0,23.0,95,0.18,,CLR,0.78,0.00,VWS V14.01,2013-10-04 11:46:00,
2013-10-04 05:51:00,35.0,33.7,30.06,NNW,338,14.0,25.0,95,0.19,,CLR,0.79,0.00,VWS V14.01,2013-10-04 11:51:00,
2013-10-04 05:56:00,35.0,33.7,30.06,North,360,18.0,26.0,95,0.21,,CLR,0.81,0.00,VWS V14.01,2013-10-04 11:56:00,
2013-10-04 06:00:00,36.8,35.2,30.04,North,5,17.0,31.0,94,0.13,,OVC041,0.65,0.00,VWS V14.01,2013-10-04 12:00:00,
2013-10-04 06:01:00,35.0,33.7,30.08,North,355,19.0,26.0,95,0.22,,CLR,0.82,0.00,VWS V14.01,2013-10-04 12:01:00,
2013-10-04 06:06:00,34.8,33.5,30.09,NNW,338,16.0,22.0,95,0.18,,CLR,0.83,0.00,VWS V14.01,2013-10-04 12:06:00,
2013-10-04 06:11:00,33.6,32.3,30.08,North,355,13.0,22.0,95,0.19,,CLR,0.84,0.00,VWS V14.01,2013-10-04 12:11:00,
2013-10-04 06:16:00,33.4,32.1,30.08,NW,307,12.0,26.0,95,0.19,,CLR,0.84,0.00,VWS V14.01,2013-10-04 12:16:00,
2013-10-04 06:21:00,33.3,32.0,30.09,NW,319,13.0,26.0,95,0.19,,CLR,0.84,0.00,VWS V14.01,2013-10-04 12:21:00,
2013-10-04 06:26:00,33.3,32.0,30.08,NNW,348,9.0,26.0,95,0.19,,CLR,0.84,0.00,VWS V14.01,2013-10-04 12:26:00,
2013-10-04 06:30:00,36.0,34.7,30.05,NNW,329,15.0,28.0,95,0.17,,OVC041,0.74,0.00,VWS V14.01,2013-10-04 12:30:00,
2013-10-04 06:31:00,33.3,32.0,30.09,NNW,329,11.0,26.0,95,0.19,,CLR,0.84,0.00,VWS V14.01,2013-10-04 12:31:00,
2013-10-04 06:36:00,33.5,32.2,30.09,NW,309,11.0,18.0,95,0.10,,CLR,0.84,0.00,VWS V14.01,2013-10-04 12:36:00,
2013-10-04 06:41:00,33.6,32.3,30.06,North,355,17.0,19.0,95,0.12,,CLR,0.86,0.00,VWS V14.01,2013-10-04 12:41:00,
2013-10-04 06:46:00,33.3,32.0,30.06,NW,306,17.0,21.0,95,0.13,,CLR,0.87,0.00,VWS V14.01,2013-10-04 12:46:00,
2013-10-04 06:51:00,33.1,31.8,30.07,NNW,340,18.0,21.0,95,0.13,,CLR,0.87,0.00,VWS V14.01,2013-10-04 12:51:00,
2013-10-04 06:56:00,33.1,31.8,30.10,North,351,13.0,21.0,95,0.13,,CLR,0.87,0.00,VWS V14.01,2013-10-04 12:56:00,
2013-10-04 07:00:00,35.0,33.7,30.08,NNW,331,18.0,26.0,95,0.23,,OVC041,0.83,0.00,VWS V14.01,2013-10-04 13:00:00,
2013-10-04 07:01:00,33.0,31.7,30.11,NNW,330,10.0,21.0,95,0.13,,CLR,0.87,0.00,VWS V14.01,2013-10-04 13:01:00,
2013-10-04 07:06:00,33.0,31.7,30.12,NNW,348,14.0,16.0,95,0.04,,CLR,0.87,0.00,VWS V14.01,2013-10-04 13:06:00,
2013-10-04 07:11:00,32.9,31.6,30.11,North,349,13.0,17.0,95,0.04,,CLR,0.87,0.00,VWS V14.01,2013-10-04 13:11:00,
2013-10-04 07:16:00,32.9,31.6,30.10,NNW,340,16.0,19.0,95,0.04,,CLR,0.87,0.00,VWS V14.01,2013-10-04 13:16:00,
2013-10-04 07:21:00,32.9,31.6,30.10,NW,325,15.0,19.0,95,0.04,,CLR,0.87,0.00,VWS V14.01,2013-10-04 13:21:00,
2013-10-04 07:26:00,32.9,31.6,30.12,North,350,6.0,19.0,95,0.04,,CLR,0.87,0.00,VWS V14.01,2013-10-04 13:26:00,
2013-10-04 07:30:00,33.4,32.1,30.09,North,5,10.0,26.0,95,0.19,,OVC041,0.84,0.00,VWS V14.01,2013-10-04 13:30:00,
2013-10-04 07:31:00,33.0,31.7,30.11,NW,304,8.0,19.0,95,0.04,,CLR,0.87,0.00,VWS V14.01,2013-10-04 13:31:00,
2013-10-04 07:36:00,33.0,31.7,30.10,WNW,298,12.0,19.0,95,0.03,,CLR,0.87,0.00,VWS V14.01,2013-10-04 13:36:00,
2013-10-04 07:41:00,33.1,32.1,30.11,NNW,331,7.0,19.0,96,0.03,,CLR,0.87,0.00,VWS V14.01,2013-10-04 13:41:00,
2013-10-04 07:46:00,33.1,32.1,30.11,NNW,327,21.0,27.0,96,0.03,,CLR,0.87,0.00,VWS V14.01,2013-10-04 13:46:00,
2013-10-04 07:51:00,33.2,32.2,30.11,NW,318,25.0,27.0,96,0.03,,CLR,0.87,0.00,VWS V14.01,2013-10-04 13:51:00,
2013-10-04 07:56:00,33.1,32.1,30.11,WNW,301,19.0,27.0,96,0.03,,CLR,0.87,9.00,VWS V14.01,2013-10-04 13:56:00,
2013-10-04 08:00:00,33.0,31.7,30.11,NNW,329,16.0,21.0,95,0.13,,OVC041,0.87,0.00,VWS V14.01,2013-10-04 14:00:00,
2013-10-04 08:30:00,32.9,31.6,30.11,NNW,332,10.0,19.0,95,0.04,,OVC041,0.87,0.00,VWS V14.01,2013-10-04 14:30:00,
2013-10-04 09:00:00,33.1,32.1,30.12,NNW,338,14.0,27.0,96,0.03,,OVC041,0.87,4.00,VWS V14.01,2013-10-04 15:00:00,
2013-10-04 09:30:00,33.0,32.0,30.13,NNW,338,16.0,32.0,96,0.00,,OVC041,0.87,24.00,VWS V14.01,2013-10-04 15:30:00,
2013-10-04 10:00:00,33.0,32.0,30.59,NW,315,18.0,30.0,96,0.03,,OVC041,0.90,35.00,VWS V14.01,2013-10-04 16:00:00,
2013-10-04 10:30:00,33.0,32.0,30.58,NNW,338,18.0,33.0,96,0.05,,OVC041,0.92,43.00,VWS V14.01,2013-10-04 16:30:00,
2013-10-04 11:00:00,33.0,32.0,30.59,NNW,338,18.0,32.0,96,0.06,,OVC041,0.93,35.00,VWS V14.01,2013-10-04 17:00:00,
2013-10-04 11:30:00,33.0,32.0,30.57,NNW,338,18.0,33.0,96,0.05,,OVC041,0.95,81.00,VWS V14.01,2013-10-04 17:30:00,
2013-10-04 12:00:00,33.0,32.0,30.56,NNW,338,17.0,31.0,97,0.05,,OVC041,0.97,116.00,VWS V14.01,2013-10-04 18:00:00,
2013-10-04 12:30:00,33.0,32.0,30.58,NNW,338,19.0,38.0,97,0.07,,OVC041,1.00,98.00,VWS V14.01,2013-10-04 18:30:00,
2013-10-04 13:00:00,32.9,32.1,30.11,NNW,338,19.0,34.0,97,0.07,,OVC041,1.02,132.00,VWS V14.01,2013-10-04 19:00:00,
2013-10-04 13:30:00,33.0,32.2,30.10,NNW,338,20.0,38.0,97,0.07,,OVC041,1.04,157.00,VWS V14.01,2013-10-04 19:30:00,
2013-10-04 14:00:00,32.8,32.0,30.09,NNW,338,21.0,34.0,97,0.07,,OVC041,1.07,128.00,VWS V14.01,2013-10-04 20:00:00,
2013-10-04 14:30:00,32.7,31.9,30.08,NNW,338,21.0,36.0,97,0.05,,OVC041,1.07,100.00,VWS V14.01,2013-10-04 20:30:00,
2013-10-04 15:00:00,32.6,31.8,30.10,NNW,338,21.0,35.0,97,0.04,,OVC041,1.08,69.00,VWS V14.01,2013-10-04 21:00:00,
2013-10-04 15:30:00,-30.4,-31.0,30.32,NW,315,19.0,33.0,97,0.02,,OVC041,1.09,31.00,VWS V14.01,2013-10-04 21:30:00,
2013-10-04 16:00:00,-31.7,-32.3,30.31,NNW,338,18.0,36.0,97,0.02,,OVC041,1.09,27.00,VWS V14.01,2013-10-04 22:00:00,
2013-10-04 16:30:00,-36.8,-37.3,30.34,NNW,338,19.0,38.0,97,0.01,,OVC041,1.09,33.00,VWS V14.01,2013-10-04 22:30:00,
2013-10-04 17:00:00,-30.4,-31.0,30.35,NNW,338,20.0,36.0,97,0.00,,OVC041,1.09,34.00,VWS V14.01,2013-10-04 23:00:00,
2013-10-04 17:30:00,32.1,31.4,30.09,NNW,338,21.0,35.0,97,0.00,,OVC041,1.09,31.00,VWS V14.01,2013-10-04 23:30:00,
2013-10-04 18:00:00,32.1,31.4,30.11,NW,315,21.0,36.0,97,0.00,,OVC041,1.09,31.00,VWS V14.01,2013-10-05 00:00:00,
2013-10-04 18:30:00,32.1,31.4,30.10,NW,315,22.0,35.0,97,0.00,,OVC041,1.09,28.00,VWS V14.01,2013-10-05 00:30:00,
2013-10-04 19:00:00,32.1,31.4,30.11,NW,315,22.0,35.0,97,0.00,,OVC041,1.09,13.00,VWS V14.01,2013-10-05 01:00:00,
2013-10-04 19:30:00,32.2,31.5,30.11,NW,315,23.0,42.0,97,0.00,,OVC041,1.09,0.00,VWS V14.01,2013-10-05 01:30:00,
2013-10-04 20:00:00,32.2,31.5,30.11,NW,315,24.0,40.0,97,0.00,,OVC041,1.09,0.00,VWS V14.01,2013-10-05 02:00:00,
2013-10-04 20:30:00,32.3,31.5,30.12,NW,315,23.0,38.0,97,0.00,,OVC041,1.09,0.00,VWS V14.01,2013-10-05 02:30:00,
2013-10-04 21:00:00,32.3,31.5,30.11,NW,315,22.0,35.0,97,0.00,,OVC041,1.09,0.00,VWS V14.01,2013-10-05 03:00:00,
2013-10-04 21:30:00,32.3,31.8,30.60,NW,315,22.0,36.0,98,0.00,,OVC041,1.09,0.00,VWS V14.01,2013-10-05 03:30:00,
2013-10-04 22:00:00,32.3,31.8,30.61,NW,315,22.0,38.0,98,0.00,,OVC041,1.09,0.00,VWS V14.01,2013-10-05 04:00:00,
2013-10-04 22:30:00,32.4,31.9,30.60,NW,315,23.0,36.0,98,0.00,,OVC041,1.09,0.00,VWS V14.01,2013-10-05 04:30:00,
2013-10-04 23:00:00,32.3,31.8,30.60,NW,315,25.0,40.0,98,0.00,,OVC041,1.09,0.00,VWS V14.01,2013-10-05 05:00:00,
2013-10-04 23:30:00,32.2,31.7,30.54,NW,315,25.0,40.0,98,0.00,,OVC041,1.09,0.00,VWS V14.01,2013-10-05 05:30:00,